Sweet Springs, Missouri
Current Conditions -  °F | °C
As of 3:35 AM on Saturday 22 Nov 2014 (Local Time) from KMHL Reporting Station
Overcast Overcast  
Wind Chill: 52°   Ceiling: 1000
Heat Index: 52°   Visibility: 7mi
Dew Point: 50°   Wind: 12mph
Humidity: 94%   Direction: 200°SSW
Pressure: 30.07"   Gusts: NA
Location:  38.96°N, 93.41°W
Report Text: KMHL 220935Z AUTO 20010KT 7SM OVC010 11/10 A3007 RMK AO2
Loading
Personal Weather Stations






























Interactive Weather Map New forecast layout! Learn more

10-Day Weather Forecast

Advertisements
Track Severe Weather on mobile